Portada
METAR-TAF:

METAR-TAF

Aeropuertos :

Aeropuerto de Hiroshima

Hiroshima, Japón

latitud: 34-26N, longitud: 132-55E, altitud: 331 m

Observación

El informe se hizo hace 4 horas y 10 minutos, a las 13:00 UTC
Viento 2 kt del norte-noroeste
Temperatura 21°C
Humedad 88%
Presión 1009 hPa
Visibilidad: 8000 m
Escasas nubes a una altura de 2500 ft
Nubes dispersas a una altura de 5000 ft
Cielo nuboso a una altura de 8000 ft

METAR: RJOA 061300Z 33002KT 8000 FEW025 SCT050 BKN080 21/19 Q1009

Hora: 02:10 (17:10 UTC)

Pronóstico

El informe se hizo hace 6 horas y 4 minutos, a las 11:06 UTC
Pronóstico válido del 06 a las 12 UTC al 07 a las 18 UTC
Viento 4 kt del norte-noreste
Visibilidad 10 km o más
Escasas nubes a una altura de 2000 ft
Cielo nuboso a una altura de 3500 ft

TAF: RJOA 061106Z 0612/0718 02004KT 9999 FEW020 BKN035

Observaciones y pronósticos meteorológicos de más de 4000 aeropuertos (mensajes METAR y TAF).

Los puntos amarillos y rojos representan las estaciones disponibles.

Ponga el ratón en el punto deseado para ver el nombre de la estación.

Haga clic para ver las observaciones y los pronósticos meteorológicos.

Para cambiar el mapa : haga clic en los botones verdes con una cruz de color negro para hacer un zoom, en el botón verde con un guión para alejar o en las flechas verdes para mapas adyacentes.


METAR-TAF: